sensor_id;sensor_type;location;lat;lon;timestamp;temperature;humidity
6098;DHT22;3077;50.922;6.584;2022-11-20T00:00:07;6.60;99.90
6098;DHT22;3077;50.922;6.584;2022-11-20T00:02:33;5.70;99.90
6098;DHT22;3077;50.922;6.584;2022-11-20T00:04:58;5.70;99.90
6098;DHT22;3077;50.922;6.584;2022-11-20T00:07:24;5.60;99.90
6098;DHT22;3077;50.922;6.584;2022-11-20T00:09:49;5.60;99.90
6098;DHT22;3077;50.922;6.584;2022-11-20T00:12:15;5.60;99.90
6098;DHT22;3077;50.922;6.584;2022-11-20T00:14:41;5.60;99.90
6098;DHT22;3077;50.922;6.584;2022-11-20T00:17:06;5.50;99.90
6098;DHT22;3077;50.922;6.584;2022-11-20T00:19:32;5.50;99.90
6098;DHT22;3077;50.922;6.584;2022-11-20T00:21:58;5.60;99.90
6098;DHT22;3077;50.922;6.584;2022-11-20T00:24:23;5.50;99.90
6098;DHT22;3077;50.922;6.584;2022-11-20T00:26:49;5.50;99.90
6098;DHT22;3077;50.922;6.584;2022-11-20T00:29:15;5.40;99.90
6098;DHT22;3077;50.922;6.584;2022-11-20T00:31:41;5.50;99.90
6098;DHT22;3077;50.922;6.584;2022-11-20T00:34:06;5.50;99.90
6098;DHT22;3077;50.922;6.584;2022-11-20T00:36:33;5.50;99.90
6098;DHT22;3077;50.922;6.584;2022-11-20T00:38:59;5.50;99.90
6098;DHT22;3077;50.922;6.584;2022-11-20T00:41:27;5.50;99.90
6098;DHT22;3077;50.922;6.584;2022-11-20T00:43:53;5.50;99.90
6098;DHT22;3077;50.922;6.584;2022-11-20T00:46:21;5.50;99.90
6098;DHT22;3077;50.922;6.584;2022-11-20T00:48:47;5.50;99.90
6098;DHT22;3077;50.922;6.584;2022-11-20T00:51:15;5.50;99.90
6098;DHT22;3077;50.922;6.584;2022-11-20T00:53:41;5.50;99.90
6098;DHT22;3077;50.922;6.584;2022-11-20T00:56:10;5.40;99.90
6098;DHT22;3077;50.922;6.584;2022-11-20T00:58:38;5.40;99.90
6098;DHT22;3077;50.922;6.584;2022-11-20T01:03:36;5.40;99.90
6098;DHT22;3077;50.922;6.584;2022-11-20T01:06:13;5.50;99.90
6098;DHT22;3077;50.922;6.584;2022-11-20T01:08:39;5.40;99.90
6098;DHT22;3077;50.922;6.584;2022-11-20T01:11:11;5.40;99.90
6098;DHT22;3077;50.922;6.584;2022-11-20T01:13:37;5.40;99.90
6098;DHT22;3077;50.922;6.584;2022-11-20T01:16:15;5.40;99.90
6098;DHT22;3077;50.922;6.584;2022-11-20T01:18:43;5.30;99.90
6098;DHT22;3077;50.922;6.584;2022-11-20T01:21:15;5.40;99.90
6098;DHT22;3077;50.922;6.584;2022-11-20T01:23:42;5.40;99.90
6098;DHT22;3077;50.922;6.584;2022-11-20T01:26:17;5.40;99.90
6098;DHT22;3077;50.922;6.584;2022-11-20T01:28:43;5.40;99.90
6098;DHT22;3077;50.922;6.584;2022-11-20T01:31:14;5.30;99.90
6098;DHT22;3077;50.922;6.584;2022-11-20T01:33:41;5.30;99.90
6098;DHT22;3077;50.922;6.584;2022-11-20T01:36:07;5.30;99.90
6098;DHT22;3077;50.922;6.584;2022-11-20T01:38:33;5.30;99.90
6098;DHT22;3077;50.922;6.584;2022-11-20T01:40:58;5.30;99.90
6098;DHT22;3077;50.922;6.584;2022-11-20T01:43:25;5.30;99.90
6098;DHT22;3077;50.922;6.584;2022-11-20T01:46:13;5.50;99.90
6098;DHT22;3077;50.922;6.584;2022-11-20T01:48:53;5.30;99.90
6098;DHT22;3077;50.922;6.584;2022-11-20T01:51:29;5.30;99.90
6098;DHT22;3077;50.922;6.584;2022-11-20T01:53:59;5.30;99.90
6098;DHT22;3077;50.922;6.584;2022-11-20T01:56:26;5.30;99.90
6098;DHT22;3077;50.922;6.584;2022-11-20T01:58:55;5.30;99.90
6098;DHT22;3077;50.922;6.584;2022-11-20T02:01:22;5.30;99.90
6098;DHT22;3077;50.922;6.584;2022-11-20T02:03:48;5.30;99.90
6098;DHT22;3077;50.922;6.584;2022-11-20T02:06:26;5.30;99.90
6098;DHT22;3077;50.922;6.584;2022-11-20T02:08:54;5.30;99.90
6098;DHT22;3077;50.922;6.584;2022-11-20T02:11:20;5.30;99.90
6098;DHT22;3077;50.922;6.584;2022-11-20T02:13:46;5.30;99.90
6098;DHT22;3077;50.922;6.584;2022-11-20T02:16:22;5.30;99.90
6098;DHT22;3077;50.922;6.584;2022-11-20T02:18:49;5.30;99.90
6098;DHT22;3077;50.922;6.584;2022-11-20T02:24:08;5.20;99.90
6098;DHT22;3077;50.922;6.584;2022-11-20T02:26:40;5.20;99.90
6098;DHT22;3077;50.922;6.584;2022-11-20T02:29:06;5.20;99.90
6098;DHT22;3077;50.922;6.584;2022-11-20T02:31:40;5.20;99.90
6098;DHT22;3077;50.922;6.584;2022-11-20T02:34:07;5.20;99.90
6098;DHT22;3077;50.922;6.584;2022-11-20T02:36:34;5.20;99.90
6098;DHT22;3077;50.922;6.584;2022-11-20T02:39:02;5.60;99.90
6098;DHT22;3077;50.922;6.584;2022-11-20T02:41:35;5.20;99.90
6098;DHT22;3077;50.922;6.584;2022-11-20T02:44:02;5.20;99.90
6098;DHT22;3077;50.922;6.584;2022-11-20T02:46:29;5.20;99.90
6098;DHT22;3077;50.922;6.584;2022-11-20T02:48:55;5.20;99.90
6098;DHT22;3077;50.922;6.584;2022-11-20T02:51:21;5.20;99.90
6098;DHT22;3077;50.922;6.584;2022-11-20T02:53:47;5.10;99.90
6098;DHT22;3077;50.922;6.584;2022-11-20T02:56:12;4.90;99.90
6098;DHT22;3077;50.922;6.584;2022-11-20T02:58:38;5.00;99.90
6098;DHT22;3077;50.922;6.584;2022-11-20T03:01:04;5.00;99.90
6098;DHT22;3077;50.922;6.584;2022-11-20T03:03:29;5.00;99.90
6098;DHT22;3077;50.922;6.584;2022-11-20T03:05:55;4.90;99.90
6098;DHT22;3077;50.922;6.584;2022-11-20T03:08:20;5.00;99.90
6098;DHT22;3077;50.922;6.584;2022-11-20T03:10:46;5.00;99.90
6098;DHT22;3077;50.922;6.584;2022-11-20T03:13:11;4.90;99.90
6098;DHT22;3077;50.922;6.584;2022-11-20T03:15:37;4.90;99.90
6098;DHT22;3077;50.922;6.584;2022-11-20T03:18:03;4.90;99.90
6098;DHT22;3077;50.922;6.584;2022-11-20T03:20:29;4.80;99.90
6098;DHT22;3077;50.922;6.584;2022-11-20T03:22:55;4.80;99.90
6098;DHT22;3077;50.922;6.584;2022-11-20T03:25:21;4.80;99.90
6098;DHT22;3077;50.922;6.584;2022-11-20T03:27:46;4.80;99.90
6098;DHT22;3077;50.922;6.584;2022-11-20T03:30:13;4.70;99.90
6098;DHT22;3077;50.922;6.584;2022-11-20T03:32:39;4.70;99.90
6098;DHT22;3077;50.922;6.584;2022-11-20T03:35:05;4.80;99.90
6098;DHT22;3077;50.922;6.584;2022-11-20T03:37:31;4.80;99.90
6098;DHT22;3077;50.922;6.584;2022-11-20T03:39:57;4.90;99.90
6098;DHT22;3077;50.922;6.584;2022-11-20T03:42:23;4.80;99.90
6098;DHT22;3077;50.922;6.584;2022-11-20T03:45:07;4.80;99.90
6098;DHT22;3077;50.922;6.584;2022-11-20T03:47:33;4.90;99.90
6098;DHT22;3077;50.922;6.584;2022-11-20T03:49:59;4.90;99.90
6098;DHT22;3077;50.922;6.584;2022-11-20T03:52:24;4.90;99.90
6098;DHT22;3077;50.922;6.584;2022-11-20T03:54:50;4.90;99.90
6098;DHT22;3077;50.922;6.584;2022-11-20T03:57:15;4.90;99.90
6098;DHT22;3077;50.922;6.584;2022-11-20T03:59:41;4.90;99.90
6098;DHT22;3077;50.922;6.584;2022-11-20T04:02:07;4.90;99.90
6098;DHT22;3077;50.922;6.584;2022-11-20T04:04:32;4.90;99.90
6098;DHT22;3077;50.922;6.584;2022-11-20T04:06:58;4.90;99.90
6098;DHT22;3077;50.922;6.584;2022-11-20T04:09:23;4.80;99.90
6098;DHT22;3077;50.922;6.584;2022-11-20T04:11:49;4.90;99.90
6098;DHT22;3077;50.922;6.584;2022-11-20T04:14:16;4.90;99.90
6098;DHT22;3077;50.922;6.584;2022-11-20T04:16:42;4.80;99.90
6098;DHT22;3077;50.922;6.584;2022-11-20T04:19:14;4.80;99.90
6098;DHT22;3077;50.922;6.584;2022-11-20T04:21:40;4.80;99.90
6098;DHT22;3077;50.922;6.584;2022-11-20T04:24:06;4.80;99.90
6098;DHT22;3077;50.922;6.584;2022-11-20T04:26:32;4.80;99.90
6098;DHT22;3077;50.922;6.584;2022-11-20T04:28:58;4.80;99.90
6098;DHT22;3077;50.922;6.584;2022-11-20T04:31:28;4.80;99.90
6098;DHT22;3077;50.922;6.584;2022-11-20T04:33:54;4.80;99.90
6098;DHT22;3077;50.922;6.584;2022-11-20T04:36:22;4.90;99.90
6098;DHT22;3077;50.922;6.584;2022-11-20T04:38:56;4.90;99.90
6098;DHT22;3077;50.922;6.584;2022-11-20T04:41:23;4.80;99.90
6098;DHT22;3077;50.922;6.584;2022-11-20T04:43:51;4.80;99.90
6098;DHT22;3077;50.922;6.584;2022-11-20T04:46:19;4.80;99.90
6098;DHT22;3077;50.922;6.584;2022-11-20T04:48:45;4.90;99.90
6098;DHT22;3077;50.922;6.584;2022-11-20T04:51:11;4.80;99.90
6098;DHT22;3077;50.922;6.584;2022-11-20T04:53:36;4.90;99.90
6098;DHT22;3077;50.922;6.584;2022-11-20T04:56:04;5.20;99.90
6098;DHT22;3077;50.922;6.584;2022-11-20T04:58:30;5.00;99.90
6098;DHT22;3077;50.922;6.584;2022-11-20T05:01:06;5.10;99.90
6098;DHT22;3077;50.922;6.584;2022-11-20T05:03:32;5.00;99.90
6098;DHT22;3077;50.922;6.584;2022-11-20T05:06:05;5.10;99.90
6098;DHT22;3077;50.922;6.584;2022-11-20T05:08:31;5.10;99.90
6098;DHT22;3077;50.922;6.584;2022-11-20T05:11:11;5.10;99.90
6098;DHT22;3077;50.922;6.584;2022-11-20T05:13:38;5.10;99.90
6098;DHT22;3077;50.922;6.584;2022-11-20T05:16:06;5.10;99.90
6098;DHT22;3077;50.922;6.584;2022-11-20T05:18:33;5.10;99.90
6098;DHT22;3077;50.922;6.584;2022-11-20T05:20:59;5.10;99.90
6098;DHT22;3077;50.922;6.584;2022-11-20T05:23:26;5.10;99.90
6098;DHT22;3077;50.922;6.584;2022-11-20T05:25:53;5.10;99.90
6098;DHT22;3077;50.922;6.584;2022-11-20T05:28:19;5.10;99.90
6098;DHT22;3077;50.922;6.584;2022-11-20T05:30:44;5.10;99.90
6098;DHT22;3077;50.922;6.584;2022-11-20T05:33:10;5.10;99.90
6098;DHT22;3077;50.922;6.584;2022-11-20T05:35:36;5.20;99.90
6098;DHT22;3077;50.922;6.584;2022-11-20T05:38:01;5.10;99.90
6098;DHT22;3077;50.922;6.584;2022-11-20T05:40:27;5.20;99.90
6098;DHT22;3077;50.922;6.584;2022-11-20T05:42:52;5.20;99.90
6098;DHT22;3077;50.922;6.584;2022-11-20T05:45:18;5.20;99.90
6098;DHT22;3077;50.922;6.584;2022-11-20T05:47:43;5.20;99.90
6098;DHT22;3077;50.922;6.584;2022-11-20T05:50:09;5.20;99.90
6098;DHT22;3077;50.922;6.584;2022-11-20T05:52:35;5.20;99.90
6098;DHT22;3077;50.922;6.584;2022-11-20T05:55:00;5.20;99.90
6098;DHT22;3077;50.922;6.584;2022-11-20T05:57:26;5.20;99.90
6098;DHT22;3077;50.922;6.584;2022-11-20T05:59:51;5.20;99.90
6098;DHT22;3077;50.922;6.584;2022-11-20T06:02:17;5.10;99.90
6098;DHT22;3077;50.922;6.584;2022-11-20T06:04:42;5.10;99.90
6098;DHT22;3077;50.922;6.584;2022-11-20T06:07:08;5.10;99.90
6098;DHT22;3077;50.922;6.584;2022-11-20T06:09:34;5.20;99.90
6098;DHT22;3077;50.922;6.584;2022-11-20T06:12:00;5.10;99.90
6098;DHT22;3077;50.922;6.584;2022-11-20T06:14:25;5.20;99.90
6098;DHT22;3077;50.922;6.584;2022-11-20T06:16:51;5.20;99.90
6098;DHT22;3077;50.922;6.584;2022-11-20T06:19:16;5.20;99.90
6098;DHT22;3077;50.922;6.584;2022-11-20T06:21:42;5.20;99.90
6098;DHT22;3077;50.922;6.584;2022-11-20T06:24:11;5.10;99.90
6098;DHT22;3077;50.922;6.584;2022-11-20T06:26:36;5.10;99.90
6098;DHT22;3077;50.922;6.584;2022-11-20T06:29:02;5.10;99.90
6098;DHT22;3077;50.922;6.584;2022-11-20T06:31:28;5.20;99.90
6098;DHT22;3077;50.922;6.584;2022-11-20T06:33:54;5.10;99.90
6098;DHT22;3077;50.922;6.584;2022-11-20T06:36:21;5.20;99.90
6098;DHT22;3077;50.922;6.584;2022-11-20T06:38:47;5.20;99.90
6098;DHT22;3077;50.922;6.584;2022-11-20T06:41:16;5.20;99.90
6098;DHT22;3077;50.922;6.584;2022-11-20T06:43:42;5.30;99.90
6098;DHT22;3077;50.922;6.584;2022-11-20T06:46:10;5.20;99.90
6098;DHT22;3077;50.922;6.584;2022-11-20T06:48:35;5.20;99.90
6098;DHT22;3077;50.922;6.584;2022-11-20T06:51:04;5.30;99.90
6098;DHT22;3077;50.922;6.584;2022-11-20T06:53:30;5.20;99.90
6098;DHT22;3077;50.922;6.584;2022-11-20T06:55:57;5.20;99.90
6098;DHT22;3077;50.922;6.584;2022-11-20T06:58:30;5.20;99.90
6098;DHT22;3077;50.922;6.584;2022-11-20T07:01:00;5.20;99.90
6098;DHT22;3077;50.922;6.584;2022-11-20T07:03:27;5.20;99.90
6098;DHT22;3077;50.922;6.584;2022-11-20T07:05:55;5.30;99.90
6098;DHT22;3077;50.922;6.584;2022-11-20T07:08:21;5.30;99.90
6098;DHT22;3077;50.922;6.584;2022-11-20T07:10:47;5.20;99.90
6098;DHT22;3077;50.922;6.584;2022-11-20T07:13:12;5.20;99.90
6098;DHT22;3077;50.922;6.584;2022-11-20T07:15:38;5.10;99.90
6098;DHT22;3077;50.922;6.584;2022-11-20T07:18:04;5.10;99.90
6098;DHT22;3077;50.922;6.584;2022-11-20T07:20:30;5.00;99.90
6098;DHT22;3077;50.922;6.584;2022-11-20T07:22:56;5.00;99.90
6098;DHT22;3077;50.922;6.584;2022-11-20T07:25:22;5.00;99.90
6098;DHT22;3077;50.922;6.584;2022-11-20T07:27:48;5.00;99.90
6098;DHT22;3077;50.922;6.584;2022-11-20T07:30:15;5.00;99.90
6098;DHT22;3077;50.922;6.584;2022-11-20T07:32:40;5.00;99.90
6098;DHT22;3077;50.922;6.584;2022-11-20T07:35:06;5.00;99.90
6098;DHT22;3077;50.922;6.584;2022-11-20T07:37:34;5.10;99.90
6098;DHT22;3077;50.922;6.584;2022-11-20T07:40:00;5.10;99.90
6098;DHT22;3077;50.922;6.584;2022-11-20T07:42:25;5.00;99.90
6098;DHT22;3077;50.922;6.584;2022-11-20T07:44:51;5.00;99.90
6098;DHT22;3077;50.922;6.584;2022-11-20T07:47:16;5.00;99.90
6098;DHT22;3077;50.922;6.584;2022-11-20T07:49:42;5.00;99.90
6098;DHT22;3077;50.922;6.584;2022-11-20T07:52:07;5.10;99.90
6098;DHT22;3077;50.922;6.584;2022-11-20T07:54:33;5.00;99.90
6098;DHT22;3077;50.922;6.584;2022-11-20T07:56:59;5.00;99.90
6098;DHT22;3077;50.922;6.584;2022-11-20T07:59:24;5.10;99.90
6098;DHT22;3077;50.922;6.584;2022-11-20T08:01:50;5.70;99.90
6098;DHT22;3077;50.922;6.584;2022-11-20T08:04:15;5.20;99.90
6098;DHT22;3077;50.922;6.584;2022-11-20T08:06:41;5.20;99.90
6098;DHT22;3077;50.922;6.584;2022-11-20T08:09:07;5.30;99.90
6098;DHT22;3077;50.922;6.584;2022-11-20T08:11:32;5.30;99.90
6098;DHT22;3077;50.922;6.584;2022-11-20T08:14:17;5.30;99.90
6098;DHT22;3077;50.922;6.584;2022-11-20T08:16:49;5.30;99.90
6098;DHT22;3077;50.922;6.584;2022-11-20T08:19:17;5.40;99.90
6098;DHT22;3077;50.922;6.584;2022-11-20T08:21:43;5.40;99.90
6098;DHT22;3077;50.922;6.584;2022-11-20T08:24:10;5.50;99.90
6098;DHT22;3077;50.922;6.584;2022-11-20T08:26:37;5.50;99.90
6098;DHT22;3077;50.922;6.584;2022-11-20T08:29:03;5.50;99.90
6098;DHT22;3077;50.922;6.584;2022-11-20T08:31:30;5.60;99.90
6098;DHT22;3077;50.922;6.584;2022-11-20T08:33:56;5.60;99.90
6098;DHT22;3077;50.922;6.584;2022-11-20T08:36:22;5.60;99.90
6098;DHT22;3077;50.922;6.584;2022-11-20T08:38:49;5.80;99.90
6098;DHT22;3077;50.922;6.584;2022-11-20T08:41:15;5.80;99.90
6098;DHT22;3077;50.922;6.584;2022-11-20T08:44:00;5.80;99.90
6098;DHT22;3077;50.922;6.584;2022-11-20T08:46:31;6.00;99.90
6098;DHT22;3077;50.922;6.584;2022-11-20T08:48:58;6.10;99.90
6098;DHT22;3077;50.922;6.584;2022-11-20T08:51:24;6.10;99.90
6098;DHT22;3077;50.922;6.584;2022-11-20T08:53:49;6.00;99.90
6098;DHT22;3077;50.922;6.584;2022-11-20T08:56:16;6.10;99.90
6098;DHT22;3077;50.922;6.584;2022-11-20T08:58:42;6.10;99.90
6098;DHT22;3077;50.922;6.584;2022-11-20T09:01:08;6.10;99.90
6098;DHT22;3077;50.922;6.584;2022-11-20T09:03:33;6.20;99.90
6098;DHT22;3077;50.922;6.584;2022-11-20T09:06:04;6.30;99.90
6098;DHT22;3077;50.922;6.584;2022-11-20T09:08:31;6.30;99.90
6098;DHT22;3077;50.922;6.584;2022-11-20T09:10:57;6.30;99.90
6098;DHT22;3077;50.922;6.584;2022-11-20T09:13:24;6.30;99.90
6098;DHT22;3077;50.922;6.584;2022-11-20T09:16:01;6.40;99.90
6098;DHT22;3077;50.922;6.584;2022-11-20T09:18:28;6.40;99.90
6098;DHT22;3077;50.922;6.584;2022-11-20T09:21:00;6.50;99.90
6098;DHT22;3077;50.922;6.584;2022-11-20T09:23:27;6.60;99.90
6098;DHT22;3077;50.922;6.584;2022-11-20T09:25:56;6.60;99.90
6098;DHT22;3077;50.922;6.584;2022-11-20T09:28:26;6.60;99.90
6098;DHT22;3077;50.922;6.584;2022-11-20T09:30:51;6.70;99.90
6098;DHT22;3077;50.922;6.584;2022-11-20T09:33:17;6.70;99.90
6098;DHT22;3077;50.922;6.584;2022-11-20T09:35:44;6.70;99.90
6098;DHT22;3077;50.922;6.584;2022-11-20T09:38:11;6.80;99.90
6098;DHT22;3077;50.922;6.584;2022-11-20T09:40:45;6.90;99.90
6098;DHT22;3077;50.922;6.584;2022-11-20T09:43:14;7.00;99.90
6098;DHT22;3077;50.922;6.584;2022-11-20T09:45:48;7.00;99.90
6098;DHT22;3077;50.922;6.584;2022-11-20T09:56:34;6.90;99.90
6098;DHT22;3077;50.922;6.584;2022-11-20T09:59:05;6.90;99.90
6098;DHT22;3077;50.922;6.584;2022-11-20T10:01:35;6.80;99.90
6098;DHT22;3077;50.922;6.584;2022-11-20T10:04:04;6.80;99.90
6098;DHT22;3077;50.922;6.584;2022-11-20T10:09:38;6.90;99.90
6098;DHT22;3077;50.922;6.584;2022-11-20T10:12:22;7.10;99.90
6098;DHT22;3077;50.922;6.584;2022-11-20T10:15:12;7.10;99.90
6098;DHT22;3077;50.922;6.584;2022-11-20T10:26:28;7.30;99.90
6098;DHT22;3077;50.922;6.584;2022-11-20T10:31:38;7.20;99.90
6098;DHT22;3077;50.922;6.584;2022-11-20T10:34:21;7.10;99.90
6098;DHT22;3077;50.922;6.584;2022-11-20T10:37:12;7.20;99.90
6098;DHT22;3077;50.922;6.584;2022-11-20T10:40:01;7.00;99.90
6098;DHT22;3077;50.922;6.584;2022-11-20T10:47:49;7.00;99.90
6098;DHT22;3077;50.922;6.584;2022-11-20T10:50:19;6.90;99.90
6098;DHT22;3077;50.922;6.584;2022-11-20T10:53:04;6.90;99.90
6098;DHT22;3077;50.922;6.584;2022-11-20T10:55:46;6.90;99.90
6098;DHT22;3077;50.922;6.584;2022-11-20T11:01:18;6.80;99.90
6098;DHT22;3077;50.922;6.584;2022-11-20T11:03:44;6.70;99.90
6098;DHT22;3077;50.922;6.584;2022-11-20T11:06:34;6.70;99.90
6098;DHT22;3077;50.922;6.584;2022-11-20T11:09:08;6.60;99.90
6098;DHT22;3077;50.922;6.584;2022-11-20T11:11:34;6.70;99.90
6098;DHT22;3077;50.922;6.584;2022-11-20T11:14:11;6.70;99.90
6098;DHT22;3077;50.922;6.584;2022-11-20T11:16:55;6.70;99.90
6098;DHT22;3077;50.922;6.584;2022-11-20T11:19:21;6.80;99.90
6098;DHT22;3077;50.922;6.584;2022-11-20T11:21:52;6.80;99.90
6098;DHT22;3077;50.922;6.584;2022-11-20T11:24:28;6.70;99.90
6098;DHT22;3077;50.922;6.584;2022-11-20T11:27:00;6.70;99.90
6098;DHT22;3077;50.922;6.584;2022-11-20T11:29:30;6.70;99.90
6098;DHT22;3077;50.922;6.584;2022-11-20T11:32:04;6.70;99.90
6098;DHT22;3077;50.922;6.584;2022-11-20T11:34:30;6.70;99.90
6098;DHT22;3077;50.922;6.584;2022-11-20T11:36:59;6.70;99.90
6098;DHT22;3077;50.922;6.584;2022-11-20T11:39:27;6.70;99.90
6098;DHT22;3077;50.922;6.584;2022-11-20T11:41:54;6.80;99.90
6098;DHT22;3077;50.922;6.584;2022-11-20T11:44:23;6.80;99.90
6098;DHT22;3077;50.922;6.584;2022-11-20T11:47:17;6.80;99.90
6098;DHT22;3077;50.922;6.584;2022-11-20T11:49:46;6.90;99.90
6098;DHT22;3077;50.922;6.584;2022-11-20T11:52:16;6.80;99.90
6098;DHT22;3077;50.922;6.584;2022-11-20T11:54:47;7.00;99.90
6098;DHT22;3077;50.922;6.584;2022-11-20T11:57:20;6.90;99.90
6098;DHT22;3077;50.922;6.584;2022-11-20T12:00:10;7.20;99.90
6098;DHT22;3077;50.922;6.584;2022-11-20T12:05:20;7.10;99.90
6098;DHT22;3077;50.922;6.584;2022-11-20T12:08:06;7.10;99.90
6098;DHT22;3077;50.922;6.584;2022-11-20T12:13:42;7.20;99.90
6098;DHT22;3077;50.922;6.584;2022-11-20T12:16:13;7.80;99.90
6098;DHT22;3077;50.922;6.584;2022-11-20T12:18:40;7.30;99.90
6098;DHT22;3077;50.922;6.584;2022-11-20T12:21:19;7.30;99.90
6098;DHT22;3077;50.922;6.584;2022-11-20T12:24:06;8.30;99.90
6098;DHT22;3077;50.922;6.584;2022-11-20T12:29:42;7.20;99.90
6098;DHT22;3077;50.922;6.584;2022-11-20T12:34:54;7.20;99.90
6098;DHT22;3077;50.922;6.584;2022-11-20T12:37:48;7.30;99.90
6098;DHT22;3077;50.922;6.584;2022-11-20T12:40:47;7.30;99.90
6098;DHT22;3077;50.922;6.584;2022-11-20T12:43:28;7.40;99.90
6098;DHT22;3077;50.922;6.584;2022-11-20T12:46:18;7.50;99.90
6098;DHT22;3077;50.922;6.584;2022-11-20T12:54:06;7.70;99.90
6098;DHT22;3077;50.922;6.584;2022-11-20T13:02:25;7.80;99.90
6098;DHT22;3077;50.922;6.584;2022-11-20T13:07:21;7.80;99.90
6098;DHT22;3077;50.922;6.584;2022-11-20T13:09:50;7.90;99.90
6098;DHT22;3077;50.922;6.584;2022-11-20T13:12:30;7.90;99.90
6098;DHT22;3077;50.922;6.584;2022-11-20T13:17:42;7.80;99.90
6098;DHT22;3077;50.922;6.584;2022-11-20T13:20:18;7.90;99.90
6098;DHT22;3077;50.922;6.584;2022-11-20T13:25:27;7.90;99.90
6098;DHT22;3077;50.922;6.584;2022-11-20T13:27:55;7.90;99.90
6098;DHT22;3077;50.922;6.584;2022-11-20T13:30:23;7.80;99.90
6098;DHT22;3077;50.922;6.584;2022-11-20T13:35:56;7.90;99.90
6098;DHT22;3077;50.922;6.584;2022-11-20T13:38:22;8.00;99.90
6098;DHT22;3077;50.922;6.584;2022-11-20T13:43:27;8.00;99.90
6098;DHT22;3077;50.922;6.584;2022-11-20T13:46:04;8.00;99.90
6098;DHT22;3077;50.922;6.584;2022-11-20T13:48:33;8.00;99.90
6098;DHT22;3077;50.922;6.584;2022-11-20T14:00:20;8.10;99.90
6098;DHT22;3077;50.922;6.584;2022-11-20T14:03:16;8.10;99.90
6098;DHT22;3077;50.922;6.584;2022-11-20T14:06:05;8.10;99.90
6098;DHT22;3077;50.922;6.584;2022-11-20T14:08:40;8.00;99.90
6098;DHT22;3077;50.922;6.584;2022-11-20T14:11:16;7.90;99.90
6098;DHT22;3077;50.922;6.584;2022-11-20T14:14:04;7.90;99.90
6098;DHT22;3077;50.922;6.584;2022-11-20T14:16:39;8.00;99.90
6098;DHT22;3077;50.922;6.584;2022-11-20T14:19:34;7.90;99.90
6098;DHT22;3077;50.922;6.584;2022-11-20T14:22:29;7.80;99.90
6098;DHT22;3077;50.922;6.584;2022-11-20T14:27:41;7.80;99.90
6098;DHT22;3077;50.922;6.584;2022-11-20T14:30:19;7.70;99.90
6098;DHT22;3077;50.922;6.584;2022-11-20T14:32:46;7.70;99.90
6098;DHT22;3077;50.922;6.584;2022-11-20T14:35:45;7.70;99.90
6098;DHT22;3077;50.922;6.584;2022-11-20T14:38:17;7.70;99.90
6098;DHT22;3077;50.922;6.584;2022-11-20T14:40:43;7.70;99.90
6098;DHT22;3077;50.922;6.584;2022-11-20T14:43:28;7.60;99.90
6098;DHT22;3077;50.922;6.584;2022-11-20T14:45:58;7.50;99.90
6098;DHT22;3077;50.922;6.584;2022-11-20T14:48:34;7.50;99.90
6098;DHT22;3077;50.922;6.584;2022-11-20T14:51:00;7.50;99.90
6098;DHT22;3077;50.922;6.584;2022-11-20T14:53:26;7.40;99.90
6098;DHT22;3077;50.922;6.584;2022-11-20T14:56:00;7.40;99.90
6098;DHT22;3077;50.922;6.584;2022-11-20T14:58:29;7.30;99.90
6098;DHT22;3077;50.922;6.584;2022-11-20T15:00:57;7.30;99.90
6098;DHT22;3077;50.922;6.584;2022-11-20T15:03:31;7.30;99.90
6098;DHT22;3077;50.922;6.584;2022-11-20T15:05:56;7.40;99.90
6098;DHT22;3077;50.922;6.584;2022-11-20T15:08:22;7.30;99.90
6098;DHT22;3077;50.922;6.584;2022-11-20T15:10:51;7.20;99.90
6098;DHT22;3077;50.922;6.584;2022-11-20T15:13:32;7.20;99.90
6098;DHT22;3077;50.922;6.584;2022-11-20T15:16:00;7.20;99.90
6098;DHT22;3077;50.922;6.584;2022-11-20T15:18:37;7.30;99.90
6098;DHT22;3077;50.922;6.584;2022-11-20T15:21:10;7.30;99.90
6098;DHT22;3077;50.922;6.584;2022-11-20T15:23:35;7.40;99.90
6098;DHT22;3077;50.922;6.584;2022-11-20T15:26:01;7.30;99.90
6098;DHT22;3077;50.922;6.584;2022-11-20T15:31:01;7.40;99.90
6098;DHT22;3077;50.922;6.584;2022-11-20T15:33:28;7.40;99.90
6098;DHT22;3077;50.922;6.584;2022-11-20T15:35:54;7.40;99.90
6098;DHT22;3077;50.922;6.584;2022-11-20T15:38:19;7.40;99.90
6098;DHT22;3077;50.922;6.584;2022-11-20T15:40:45;7.40;99.90
6098;DHT22;3077;50.922;6.584;2022-11-20T15:43:11;7.40;99.90
6098;DHT22;3077;50.922;6.584;2022-11-20T15:45:40;7.50;99.90
6098;DHT22;3077;50.922;6.584;2022-11-20T15:48:29;7.50;99.90
6098;DHT22;3077;50.922;6.584;2022-11-20T15:53:40;7.50;99.90
6098;DHT22;3077;50.922;6.584;2022-11-20T15:56:14;7.50;99.90
6098;DHT22;3077;50.922;6.584;2022-11-20T15:58:40;7.50;99.90
6098;DHT22;3077;50.922;6.584;2022-11-20T16:01:11;7.60;99.90
6098;DHT22;3077;50.922;6.584;2022-11-20T16:03:37;7.60;99.90
6098;DHT22;3077;50.922;6.584;2022-11-20T16:06:02;7.60;99.90
6098;DHT22;3077;50.922;6.584;2022-11-20T16:08:28;7.60;99.90
6098;DHT22;3077;50.922;6.584;2022-11-20T16:10:53;7.60;99.90
6098;DHT22;3077;50.922;6.584;2022-11-20T16:13:19;7.60;99.90
6098;DHT22;3077;50.922;6.584;2022-11-20T16:16:06;7.60;99.90
6098;DHT22;3077;50.922;6.584;2022-11-20T16:18:34;7.60;99.90
6098;DHT22;3077;50.922;6.584;2022-11-20T16:21:00;7.60;99.90
6098;DHT22;3077;50.922;6.584;2022-11-20T16:23:26;7.70;99.90
6098;DHT22;3077;50.922;6.584;2022-11-20T16:25:51;7.60;99.90
6098;DHT22;3077;50.922;6.584;2022-11-20T16:28:18;7.60;99.90
6098;DHT22;3077;50.922;6.584;2022-11-20T16:30:44;7.60;99.90
6098;DHT22;3077;50.922;6.584;2022-11-20T16:33:15;8.10;99.90
6098;DHT22;3077;50.922;6.584;2022-11-20T16:35:42;7.50;99.90
6098;DHT22;3077;50.922;6.584;2022-11-20T16:38:08;7.50;99.90
6098;DHT22;3077;50.922;6.584;2022-11-20T16:40:34;7.50;99.90
6098;DHT22;3077;50.922;6.584;2022-11-20T16:43:10;7.50;99.90
6098;DHT22;3077;50.922;6.584;2022-11-20T16:45:43;7.50;99.90
6098;DHT22;3077;50.922;6.584;2022-11-20T16:48:13;7.40;99.90
6098;DHT22;3077;50.922;6.584;2022-11-20T16:50:48;7.40;99.90
6098;DHT22;3077;50.922;6.584;2022-11-20T16:53:14;7.50;99.90
6098;DHT22;3077;50.922;6.584;2022-11-20T16:55:40;7.40;99.90
6098;DHT22;3077;50.922;6.584;2022-11-20T16:58:06;7.40;99.90
6098;DHT22;3077;50.922;6.584;2022-11-20T17:00:31;7.40;99.90
6098;DHT22;3077;50.922;6.584;2022-11-20T17:03:00;7.30;99.90
6098;DHT22;3077;50.922;6.584;2022-11-20T17:05:29;7.50;99.90
6098;DHT22;3077;50.922;6.584;2022-11-20T17:07:54;7.30;99.90
6098;DHT22;3077;50.922;6.584;2022-11-20T17:10:20;8.00;99.90
6098;DHT22;3077;50.922;6.584;2022-11-20T17:12:45;7.40;99.90
6098;DHT22;3077;50.922;6.584;2022-11-20T17:15:11;7.40;99.90
6098;DHT22;3077;50.922;6.584;2022-11-20T17:17:36;7.30;99.90
6098;DHT22;3077;50.922;6.584;2022-11-20T17:20:02;7.40;99.90
6098;DHT22;3077;50.922;6.584;2022-11-20T17:22:28;7.40;99.90
6098;DHT22;3077;50.922;6.584;2022-11-20T17:24:53;7.40;99.90
6098;DHT22;3077;50.922;6.584;2022-11-20T17:27:19;7.40;99.90
6098;DHT22;3077;50.922;6.584;2022-11-20T17:29:44;7.40;99.90
6098;DHT22;3077;50.922;6.584;2022-11-20T17:32:10;7.40;99.90
6098;DHT22;3077;50.922;6.584;2022-11-20T17:34:35;7.40;99.90
6098;DHT22;3077;50.922;6.584;2022-11-20T17:37:01;7.50;99.90
6098;DHT22;3077;50.922;6.584;2022-11-20T17:39:27;7.40;99.90
6098;DHT22;3077;50.922;6.584;2022-11-20T17:41:53;7.50;99.90
6098;DHT22;3077;50.922;6.584;2022-11-20T17:44:37;7.50;99.90
6098;DHT22;3077;50.922;6.584;2022-11-20T17:47:03;7.50;99.90
6098;DHT22;3077;50.922;6.584;2022-11-20T17:49:28;7.50;99.90
6098;DHT22;3077;50.922;6.584;2022-11-20T17:51:54;7.80;99.90
6098;DHT22;3077;50.922;6.584;2022-11-20T17:54:19;7.60;99.90
6098;DHT22;3077;50.922;6.584;2022-11-20T17:56:45;7.60;99.90
6098;DHT22;3077;50.922;6.584;2022-11-20T17:59:29;7.70;99.90